createdAt,value
2019-02-04T00:00:42.174Z,1003.8
2019-02-04T00:01:42.839Z,1003.8
2019-02-04T00:02:43.507Z,1003.8
2019-02-04T00:03:44.178Z,1003.8
2019-02-04T00:04:45.076Z,1003.8
2019-02-04T00:05:45.749Z,1003.7
2019-02-04T00:06:46.415Z,1003.8
2019-02-04T00:07:47.128Z,1003.8
2019-02-04T00:08:47.794Z,1003.8
2019-02-04T00:09:48.463Z,1003.8
2019-02-04T00:10:49.131Z,1003.8
2019-02-04T00:11:49.798Z,1003.7
2019-02-04T00:12:50.461Z,1003.8
2019-02-04T00:13:51.391Z,1003.8
2019-02-04T00:14:52.058Z,1003.7
2019-02-04T00:15:52.724Z,1003.8
2019-02-04T00:16:53.397Z,1003.8
2019-02-04T00:17:54.060Z,1003.8
2019-02-04T00:18:54.726Z,1003.8
2019-02-04T00:19:55.393Z,1003.8
2019-02-04T00:20:56.060Z,1003.8
2019-02-04T00:21:56.729Z,1003.8
2019-02-04T00:22:57.699Z,1003.8
2019-02-04T00:23:58.367Z,1003.9
2019-02-04T00:24:59.036Z,1003.8
2019-02-04T00:25:59.703Z,1003.8
2019-02-04T00:27:00.373Z,1003.9
2019-02-04T00:28:01.042Z,1003.9
2019-02-04T00:29:01.765Z,1003.9
2019-02-04T00:30:02.391Z,1003.9
2019-02-04T00:31:05.207Z,1004.0
2019-02-04T00:32:04.947Z,1004.0
2019-02-04T00:33:05.615Z,1004.0
2019-02-04T00:34:06.284Z,1004.0
2019-02-04T00:35:06.952Z,1004.0
2019-02-04T00:36:07.619Z,1004.0
2019-02-04T00:37:08.290Z,1004.0
2019-02-04T00:38:08.958Z,1004.1
2019-02-04T00:39:09.675Z,1004.1
2019-02-04T00:40:10.612Z,1004.1
2019-02-04T00:41:11.279Z,1004.1
2019-02-04T00:42:11.945Z,1004.1
2019-02-04T00:43:12.616Z,1004.1
2019-02-04T00:44:13.282Z,1004.1
2019-02-04T00:45:13.950Z,1004.1
2019-02-04T00:46:14.619Z,1004.1
2019-02-04T00:47:15.286Z,1004.1
2019-02-04T00:48:16.137Z,1004.1
2019-02-04T00:49:16.805Z,1004.1
2019-02-04T00:50:17.473Z,1004.1
2019-02-04T00:51:18.142Z,1004.1
2019-02-04T00:52:18.811Z,1004.1
2019-02-04T00:53:19.480Z,1004.2
2019-02-04T00:54:20.147Z,1004.2
2019-02-04T00:55:20.817Z,1004.2
2019-02-04T00:56:21.484Z,1004.2
2019-02-04T00:57:22.366Z,1004.1
2019-02-04T00:58:23.036Z,1004.2
2019-02-04T00:59:23.703Z,1004.2
2019-02-04T01:00:24.372Z,1004.2
2019-02-04T01:01:25.037Z,1004.2
2019-02-04T01:02:25.707Z,1004.2
2019-02-04T01:03:26.378Z,1004.3
2019-02-04T01:04:27.043Z,1004.2
2019-02-04T01:05:27.851Z,1004.2
2019-02-04T01:06:28.511Z,1004.3
2019-02-04T01:07:29.179Z,1004.2
2019-02-04T01:08:29.915Z,1004.3
2019-02-04T01:09:30.589Z,1004.3
2019-02-04T01:10:31.252Z,1004.3
2019-02-04T01:11:31.920Z,1004.3
2019-02-04T01:12:32.587Z,1004.3
2019-02-04T01:13:33.256Z,1004.4
2019-02-04T01:14:34.228Z,1004.4
2019-02-04T01:15:34.897Z,1004.4
2019-02-04T01:16:35.564Z,1004.4
2019-02-04T01:17:36.233Z,1004.4
2019-02-04T01:18:36.898Z,1004.4
2019-02-04T01:19:37.566Z,1004.4
2019-02-04T01:20:38.233Z,1004.4
2019-02-04T01:21:38.902Z,1004.4
2019-02-04T01:22:39.617Z,1004.4
2019-02-04T01:23:40.628Z,1004.5
2019-02-04T01:24:41.295Z,1004.4
2019-02-04T01:25:41.968Z,1004.4
2019-02-04T01:26:42.633Z,1004.5
2019-02-04T01:27:43.369Z,1004.5
2019-02-04T01:28:44.037Z,1004.5
2019-02-04T01:29:44.702Z,1004.5
2019-02-04T01:30:45.372Z,1004.5
2019-02-04T01:31:46.056Z,1004.6
2019-02-04T01:32:46.725Z,1004.5
2019-02-04T01:33:47.394Z,1004.6
2019-02-04T01:34:48.947Z,1004.6
2019-02-04T01:35:49.694Z,1004.5
2019-02-04T01:36:50.425Z,1004.5
2019-02-04T01:37:51.090Z,1004.5
2019-02-04T01:38:51.759Z,1004.6
2019-02-04T01:39:52.427Z,1004.6
2019-02-04T01:40:53.431Z,1004.5
2019-02-04T01:41:54.099Z,1004.6
2019-02-04T01:42:54.769Z,1004.5
2019-02-04T01:43:55.438Z,1004.5
2019-02-04T01:44:56.104Z,1004.6
2019-02-04T01:45:56.774Z,1004.5
2019-02-04T01:46:57.440Z,1004.5
2019-02-04T01:47:58.108Z,1004.5
2019-02-04T01:48:58.773Z,1004.5
2019-02-04T01:49:59.742Z,1004.5
2019-02-04T01:51:00.411Z,1004.6
2019-02-04T01:52:01.078Z,1004.5
2019-02-04T01:53:01.747Z,1004.5
2019-02-04T01:54:02.415Z,1004.5
2019-02-04T01:55:03.082Z,1004.6
2019-02-04T01:56:03.752Z,1004.6
2019-02-04T01:57:04.418Z,1004.5
2019-02-04T01:58:05.301Z,1004.6
2019-02-04T01:59:05.966Z,1004.5
2019-02-04T02:00:06.634Z,1004.6
2019-02-04T02:01:07.304Z,1004.6
2019-02-04T02:02:07.969Z,1004.7
2019-02-04T02:03:08.638Z,1004.7
2019-02-04T02:04:09.306Z,1004.7
2019-02-04T02:05:10.023Z,1004.7
2019-02-04T02:06:10.692Z,1004.7
2019-02-04T02:07:11.587Z,1004.7
2019-02-04T02:08:12.256Z,1004.8
2019-02-04T02:09:12.923Z,1004.8
2019-02-04T02:10:13.589Z,1004.8
2019-02-04T02:11:14.259Z,1004.8
2019-02-04T02:12:14.924Z,1004.8
2019-02-04T02:13:15.593Z,1004.8
2019-02-04T02:14:16.260Z,1004.8
2019-02-04T02:15:16.928Z,1004.8
2019-02-04T02:16:17.942Z,1004.8
2019-02-04T02:17:25.978Z,1004.8
2019-02-04T02:18:20.270Z,1004.8
2019-02-04T02:19:20.941Z,1004.8
2019-02-04T02:20:21.604Z,1004.8
2019-02-04T02:21:22.271Z,1004.9
2019-02-04T02:22:22.937Z,1004.9
2019-02-04T02:23:23.604Z,1004.9
2019-02-04T02:24:24.272Z,1004.9
2019-02-04T02:25:24.939Z,1005.0
2019-02-04T02:26:25.606Z,1005.0
2019-02-04T02:27:26.318Z,1005.0
2019-02-04T02:28:26.984Z,1005.0
2019-02-04T02:29:27.700Z,1005.0
2019-02-04T02:30:28.370Z,1005.0
2019-02-04T02:31:29.036Z,1005.0
2019-02-04T02:32:29.702Z,1005.0
2019-02-04T02:33:30.673Z,1005.0
2019-02-04T02:34:31.334Z,1005.1
2019-02-04T02:35:32.001Z,1005.1
2019-02-04T02:36:32.670Z,1005.1
2019-02-04T02:37:33.336Z,1005.2
2019-02-04T02:38:34.005Z,1005.2
2019-02-04T02:39:34.776Z,1005.2
2019-02-04T02:40:35.432Z,1005.2
2019-02-04T02:41:36.083Z,1005.2
2019-02-04T02:42:36.752Z,1005.3
2019-02-04T02:43:37.469Z,1005.2
2019-02-04T02:44:38.139Z,1005.2
2019-02-04T02:45:38.805Z,1005.2
2019-02-04T02:46:39.476Z,1005.2
2019-02-04T02:47:40.140Z,1005.2
2019-02-04T02:48:40.806Z,1005.3
2019-02-04T02:49:41.474Z,1005.2
2019-02-04T02:50:42.353Z,1005.2
2019-02-04T02:51:43.064Z,1005.2
2019-02-04T02:52:43.727Z,1005.2
2019-02-04T02:53:44.393Z,1005.2
2019-02-04T02:54:45.064Z,1005.2
2019-02-04T02:55:45.729Z,1005.3
2019-02-04T02:56:46.394Z,1005.2
2019-02-04T02:57:47.062Z,1005.3
2019-02-04T02:58:47.954Z,1005.3
2019-02-04T02:59:48.624Z,1005.3
2019-02-04T03:00:49.290Z,1005.3
2019-02-04T03:01:49.958Z,1005.3
2019-02-04T03:02:50.626Z,1005.4
2019-02-04T03:03:51.293Z,1005.4
2019-02-04T03:04:52.076Z,1005.3
2019-02-04T03:05:52.707Z,1005.3
2019-02-04T03:06:53.374Z,1005.4
2019-02-04T03:07:54.251Z,1005.3
2019-02-04T03:08:54.916Z,1005.4
2019-02-04T03:09:55.584Z,1005.5
2019-02-04T03:10:56.252Z,1005.5
2019-02-04T03:11:56.921Z,1005.4
2019-02-04T03:12:57.586Z,1005.5
2019-02-04T03:13:58.251Z,1005.5
2019-02-04T03:14:58.918Z,1005.5
2019-02-04T03:15:59.585Z,1005.5
2019-02-04T03:17:00.255Z,1005.5
2019-02-04T03:18:00.970Z,1005.5
2019-02-04T03:19:01.640Z,1005.6
2019-02-04T03:20:02.305Z,1005.6
2019-02-04T03:21:02.974Z,1005.6
2019-02-04T03:22:03.639Z,1005.6
2019-02-04T03:23:04.307Z,1005.7
2019-02-04T03:24:04.974Z,1005.7
2019-02-04T03:25:05.902Z,1005.7
2019-02-04T03:26:06.565Z,1005.7
2019-02-04T03:27:07.228Z,1005.7
2019-02-04T03:28:08.055Z,1005.7
2019-02-04T03:29:08.684Z,1005.8
2019-02-04T03:30:09.363Z,1005.7
2019-02-04T03:31:10.018Z,1005.8
2019-02-04T03:32:10.692Z,1005.8
2019-02-04T03:33:11.402Z,1005.9
2019-02-04T03:34:12.390Z,1005.8
2019-02-04T03:35:13.056Z,1005.8
2019-02-04T03:36:13.726Z,1005.9
2019-02-04T03:37:14.400Z,1005.9
2019-02-04T03:38:15.059Z,1005.9
2019-02-04T03:39:15.725Z,1005.9
2019-02-04T03:40:16.392Z,1005.9
2019-02-04T03:41:17.060Z,1005.9
2019-02-04T03:42:17.920Z,1005.9
2019-02-04T03:43:18.595Z,1005.9
2019-02-04T03:44:19.253Z,1006.0
2019-02-04T03:45:19.919Z,1006.0
2019-02-04T03:46:20.588Z,1006.0
2019-02-04T03:47:21.257Z,1006.0
2019-02-04T03:48:21.925Z,1005.9
2019-02-04T03:49:22.587Z,1005.9
2019-02-04T03:50:23.253Z,1005.9
2019-02-04T03:51:24.163Z,1006.0
2019-02-04T03:52:24.822Z,1005.9
2019-02-04T03:53:25.490Z,1005.9
2019-02-04T03:54:26.157Z,1005.8
2019-02-04T03:55:26.825Z,1005.9
2019-02-04T03:56:27.493Z,1005.9
2019-02-04T03:57:28.160Z,1005.9
2019-02-04T03:58:28.828Z,1005.8
2019-02-04T03:59:29.494Z,1005.8
2019-02-04T04:00:30.491Z,1005.8
2019-02-04T04:01:31.157Z,1005.9
2019-02-04T04:02:31.824Z,1005.8
2019-02-04T04:03:32.492Z,1005.8
2019-02-04T04:04:33.159Z,1005.8
2019-02-04T04:05:33.826Z,1005.8
2019-02-04T04:06:34.494Z,1005.7
2019-02-04T04:07:35.166Z,1005.7
2019-02-04T04:08:36.090Z,1005.6
2019-02-04T04:09:36.759Z,1005.7
2019-02-04T04:10:37.426Z,1005.7
2019-02-04T04:11:38.091Z,1005.7
2019-02-04T04:12:38.760Z,1005.7
2019-02-04T04:13:39.426Z,1005.8
2019-02-04T04:14:40.093Z,1005.8
2019-02-04T04:15:40.762Z,1005.8
2019-02-04T04:16:41.428Z,1005.7
2019-02-04T04:17:42.352Z,1005.8
2019-02-04T04:18:43.020Z,1005.8
2019-02-04T04:19:43.689Z,1005.8
2019-02-04T04:20:44.404Z,1005.8
2019-02-04T04:21:45.073Z,1005.9
2019-02-04T04:22:45.739Z,1005.9
2019-02-04T04:23:46.408Z,1006.0
2019-02-04T04:24:47.124Z,1006.0
2019-02-04T04:25:47.789Z,1006.0
2019-02-04T04:26:48.456Z,1006.0
2019-02-04T04:27:49.128Z,1006.0
2019-02-04T04:28:49.791Z,1006.0
2019-02-04T04:29:50.457Z,1006.1
2019-02-04T04:30:51.124Z,1006.1
2019-02-04T04:31:51.795Z,1006.2
2019-02-04T04:32:52.460Z,1006.2
2019-02-04T04:33:53.130Z,1006.2
2019-02-04T04:34:54.041Z,1006.3
2019-02-04T04:35:54.709Z,1006.2
2019-02-04T04:36:55.403Z,1006.3
2019-02-04T04:37:56.035Z,1006.2
2019-02-04T04:38:56.702Z,1006.3
2019-02-04T04:39:57.369Z,1006.3
2019-02-04T04:40:58.037Z,1006.3
2019-02-04T04:41:58.704Z,1006.3
2019-02-04T04:42:59.421Z,1006.3
2019-02-04T04:44:00.084Z,1006.3
2019-02-04T04:45:00.753Z,1006.2
2019-02-04T04:46:01.417Z,1006.3
2019-02-04T04:47:02.088Z,1006.3
2019-02-04T04:48:02.754Z,1006.3
2019-02-04T04:49:03.469Z,1006.3
2019-02-04T04:50:04.137Z,1006.3
2019-02-04T04:51:04.806Z,1006.2
2019-02-04T04:52:05.513Z,1006.2
2019-02-04T04:53:06.181Z,1006.3
2019-02-04T04:54:06.850Z,1006.2
2019-02-04T04:55:07.520Z,1006.3
2019-02-04T04:56:08.184Z,1006.3
2019-02-04T04:57:08.851Z,1006.3
2019-02-04T04:58:09.517Z,1006.4
2019-02-04T04:59:10.185Z,1006.3
2019-02-04T05:00:10.852Z,1006.4
2019-02-04T05:01:11.530Z,1006.4
2019-02-04T05:02:12.198Z,1006.4
2019-02-04T05:03:12.865Z,1006.4
2019-02-04T05:04:13.531Z,1006.4
2019-02-04T05:05:14.198Z,1006.3
2019-02-04T05:06:14.865Z,1006.3
2019-02-04T05:07:15.533Z,1006.3
2019-02-04T05:08:16.249Z,1006.3
2019-02-04T05:09:16.911Z,1006.3
2019-02-04T05:10:17.578Z,1006.3
2019-02-04T05:11:18.245Z,1006.3
2019-02-04T05:12:18.913Z,1006.3
2019-02-04T05:13:19.579Z,1006.3
2019-02-04T05:14:20.356Z,1006.3
2019-02-04T05:15:20.988Z,1006.3
2019-02-04T05:16:21.622Z,1006.3
2019-02-04T05:17:22.288Z,1006.3
2019-02-04T05:18:22.954Z,1006.4
2019-02-04T05:19:23.625Z,1006.3
2019-02-04T05:20:24.290Z,1006.3
2019-02-04T05:21:24.956Z,1006.3
2019-02-04T05:22:25.622Z,1006.3
2019-02-04T05:23:26.289Z,1006.3
2019-02-04T05:24:26.957Z,1006.4
2019-02-04T05:25:27.625Z,1006.4
2019-02-04T05:26:28.501Z,1006.3
2019-02-04T05:27:29.166Z,1006.4
2019-02-04T05:28:29.835Z,1006.4
2019-02-04T05:29:30.513Z,1006.4
2019-02-04T05:30:31.167Z,1006.4
2019-02-04T05:31:31.836Z,1006.4
2019-02-04T05:32:32.499Z,1006.4
2019-02-04T05:33:33.166Z,1006.4
2019-02-04T05:34:33.835Z,1006.4
2019-02-04T05:35:34.783Z,1006.4
2019-02-04T05:36:35.449Z,1006.4
2019-02-04T05:37:36.117Z,1006.4
2019-02-04T05:38:36.782Z,1006.4
2019-02-04T05:39:37.450Z,1006.3
2019-02-04T05:40:38.167Z,1006.4
2019-02-04T05:41:38.836Z,1006.4
2019-02-04T05:42:39.513Z,1006.4
2019-02-04T05:43:40.222Z,1006.4
2019-02-04T05:44:40.890Z,1006.4
2019-02-04T05:45:41.554Z,1006.4
2019-02-04T05:46:42.220Z,1006.4
2019-02-04T05:47:42.885Z,1006.4
2019-02-04T05:48:49.467Z,1006.4
2019-02-04T05:49:45.214Z,1006.4
2019-02-04T05:50:45.882Z,1006.4
2019-02-04T05:51:46.548Z,1006.4
2019-02-04T05:52:47.462Z,1006.4
2019-02-04T05:53:48.127Z,1006.4
2019-02-04T05:54:48.794Z,1006.4
2019-02-04T05:55:49.462Z,1006.4
2019-02-04T05:56:50.128Z,1006.4
2019-02-04T05:57:50.795Z,1006.4
2019-02-04T05:58:51.462Z,1006.4
2019-02-04T05:59:52.129Z,1006.4
2019-02-04T06:00:52.793Z,1006.4
2019-02-04T06:01:53.488Z,1006.4
2019-02-04T06:02:54.185Z,1006.4
2019-02-04T06:03:54.842Z,1006.4
2019-02-04T06:04:55.508Z,1006.4
2019-02-04T06:05:56.175Z,1006.4
2019-02-04T06:06:56.846Z,1006.4
2019-02-04T06:07:57.508Z,1006.4
2019-02-04T06:08:58.172Z,1006.4
2019-02-04T06:09:58.999Z,1006.4
2019-02-04T06:10:59.664Z,1006.4
2019-02-04T06:12:00.332Z,1006.4
2019-02-04T06:13:00.997Z,1006.4
2019-02-04T06:14:01.664Z,1006.4
2019-02-04T06:15:02.332Z,1006.4
2019-02-04T06:16:03.053Z,1006.4
2019-02-04T06:17:03.769Z,1006.4
2019-02-04T06:18:04.437Z,1006.3
2019-02-04T06:19:05.468Z,1006.3
2019-02-04T06:20:06.134Z,1006.4
2019-02-04T06:21:06.801Z,1006.4
2019-02-04T06:22:07.468Z,1006.5
2019-02-04T06:23:08.141Z,1006.4
2019-02-04T06:24:08.802Z,1006.5
2019-02-04T06:25:09.474Z,1006.5
2019-02-04T06:26:10.135Z,1006.5
2019-02-04T06:27:10.957Z,1006.6
2019-02-04T06:28:11.621Z,1006.5
2019-02-04T06:29:12.289Z,1006.6
2019-02-04T06:30:12.956Z,1006.6
2019-02-04T06:31:13.625Z,1006.6
2019-02-04T06:32:14.294Z,1006.6
2019-02-04T06:33:14.961Z,1006.7
2019-02-04T06:34:15.631Z,1006.7
2019-02-04T06:35:16.297Z,1006.7
2019-02-04T06:36:17.309Z,1006.7
2019-02-04T06:37:17.977Z,1006.7
2019-02-04T06:38:18.644Z,1006.7
2019-02-04T06:39:19.313Z,1006.8
2019-02-04T06:40:19.980Z,1006.8
2019-02-04T06:41:20.648Z,1006.8
2019-02-04T06:42:21.317Z,1006.8
2019-02-04T06:43:21.983Z,1006.8
2019-02-04T06:44:22.885Z,1006.8
2019-02-04T06:45:23.555Z,1006.8
2019-02-04T06:46:24.225Z,1006.8
2019-02-04T06:47:24.895Z,1006.9
2019-02-04T06:48:25.563Z,1006.8
2019-02-04T06:49:26.233Z,1006.8
2019-02-04T06:50:26.902Z,1006.8
2019-02-04T06:51:27.569Z,1006.8
2019-02-04T06:52:28.239Z,1006.8
2019-02-04T06:53:29.156Z,1006.8
2019-02-04T06:54:29.827Z,1006.9
2019-02-04T06:55:30.494Z,1006.9
2019-02-04T06:56:31.161Z,1006.9
2019-02-04T06:57:31.830Z,1006.9
2019-02-04T06:58:32.548Z,1006.9
2019-02-04T06:59:33.215Z,1006.9
2019-02-04T07:00:33.885Z,1007.0
2019-02-04T07:01:34.751Z,1006.9
2019-02-04T07:02:35.421Z,1007.0
2019-02-04T07:03:36.095Z,1007.0
2019-02-04T07:04:36.761Z,1007.0
2019-02-04T07:05:43.886Z,1007.0
2019-02-04T07:06:39.092Z,1007.1
2019-02-04T07:07:39.763Z,1007.1
2019-02-04T07:08:40.432Z,1007.1
2019-02-04T07:09:41.101Z,1007.1
2019-02-04T07:10:42.024Z,1007.1
2019-02-04T07:11:42.694Z,1007.1
2019-02-04T07:12:43.362Z,1007.1
2019-02-04T07:13:44.031Z,1007.1
2019-02-04T07:14:44.700Z,1007.2
2019-02-04T07:15:45.370Z,1007.1
2019-02-04T07:16:46.042Z,1007.2
2019-02-04T07:17:46.710Z,1007.1
2019-02-04T07:18:47.607Z,1007.2
2019-02-04T07:19:48.276Z,1007.2
2019-02-04T07:20:48.944Z,1007.2
2019-02-04T07:21:49.619Z,1007.1
2019-02-04T07:22:50.285Z,1007.2
2019-02-04T07:23:50.953Z,1007.2
2019-02-04T07:24:51.656Z,1007.3
2019-02-04T07:25:52.342Z,1007.2
2019-02-04T07:26:53.012Z,1007.3
2019-02-04T07:27:53.683Z,1007.3
2019-02-04T07:28:54.354Z,1007.2
2019-02-04T07:29:55.023Z,1007.2
2019-02-04T07:30:55.692Z,1007.3
2019-02-04T07:31:56.362Z,1007.2
2019-02-04T07:32:57.033Z,1007.2
2019-02-04T07:33:57.704Z,1007.2
2019-02-04T07:34:58.375Z,1007.2
2019-02-04T07:35:59.088Z,1007.2
2019-02-04T07:36:59.760Z,1007.3
2019-02-04T07:38:00.430Z,1007.3
2019-02-04T07:39:01.102Z,1007.3
2019-02-04T07:40:01.772Z,1007.3
2019-02-04T07:41:02.445Z,1007.3
2019-02-04T07:42:03.114Z,1007.3
2019-02-04T07:43:03.788Z,1007.3
2019-02-04T07:44:04.501Z,1007.3
2019-02-04T07:45:05.171Z,1007.3
2019-02-04T07:46:05.841Z,1007.2
2019-02-04T07:47:06.512Z,1007.2
2019-02-04T07:48:07.182Z,1007.3
2019-02-04T07:49:07.854Z,1007.3
2019-02-04T07:50:08.525Z,1007.3
2019-02-04T07:51:09.194Z,1007.2
2019-02-04T07:52:09.864Z,1007.2
2019-02-04T07:53:10.857Z,1007.2
2019-02-04T07:54:11.528Z,1007.2
2019-02-04T07:55:12.248Z,1007.2
2019-02-04T07:56:12.927Z,1007.2
2019-02-04T07:57:13.587Z,1007.2
2019-02-04T07:58:14.261Z,1007.2
2019-02-04T07:59:14.981Z,1007.2
2019-02-04T08:00:15.653Z,1007.2
2019-02-04T08:01:16.548Z,1007.1
2019-02-04T08:02:17.221Z,1007.1
2019-02-04T08:03:17.894Z,1007.1
2019-02-04T08:04:18.628Z,1007.1
2019-02-04T08:05:19.297Z,1007.1
2019-02-04T08:06:19.969Z,1007.1
2019-02-04T08:07:20.639Z,1007.1
2019-02-04T08:08:21.309Z,1007.1
2019-02-04T08:09:21.982Z,1007.1
2019-02-04T08:10:22.947Z,1007.1
2019-02-04T08:11:23.619Z,1007.1
2019-02-04T08:12:24.291Z,1007.1
2019-02-04T08:13:24.962Z,1007.1
2019-02-04T08:14:25.634Z,1007.1
2019-02-04T08:15:26.305Z,1007.1
2019-02-04T08:16:26.975Z,1007.1
2019-02-04T08:17:27.646Z,1007.1
2019-02-04T08:18:28.572Z,1007.1
2019-02-04T08:19:29.242Z,1007.1
2019-02-04T08:20:29.918Z,1007.1
2019-02-04T08:21:30.585Z,1007.1
2019-02-04T08:22:31.257Z,1007.1
2019-02-04T08:23:31.931Z,1007.1
2019-02-04T08:24:32.598Z,1007.1
2019-02-04T08:25:33.274Z,1007.1
2019-02-04T08:26:33.952Z,1007.1
2019-02-04T08:27:34.952Z,1007.1
2019-02-04T08:28:35.625Z,1007.1
2019-02-04T08:29:36.297Z,1007.1
2019-02-04T08:30:38.068Z,1007.1
2019-02-04T08:31:38.632Z,1007.1
2019-02-04T08:32:39.301Z,1007.0
2019-02-04T08:33:39.972Z,1007.0
2019-02-04T08:34:40.643Z,1007.0
2019-02-04T08:35:41.616Z,1007.1
2019-02-04T08:36:44.547Z,1007.1
2019-02-04T08:37:43.951Z,1007.1
2019-02-04T08:38:44.672Z,1007.1
2019-02-04T08:39:45.344Z,1007.1
2019-02-04T08:40:46.017Z,1007.1
2019-02-04T08:41:46.689Z,1007.1
2019-02-04T08:42:47.361Z,1007.1
2019-02-04T08:43:48.294Z,1007.2
2019-02-04T08:44:48.968Z,1007.1
2019-02-04T08:45:49.638Z,1007.2
2019-02-04T08:46:50.311Z,1007.1
2019-02-04T08:47:50.981Z,1007.1
2019-02-04T08:48:51.655Z,1007.1
2019-02-04T08:49:58.495Z,1007.1
2019-02-04T08:50:53.987Z,1007.1
2019-02-04T08:51:54.665Z,1007.1
2019-02-04T08:52:55.579Z,1007.1
2019-02-04T08:53:56.299Z,1007.1
2019-02-04T08:54:56.964Z,1007.1
2019-02-04T08:55:57.632Z,1007.2
2019-02-04T08:56:58.303Z,1007.1
2019-02-04T08:57:58.979Z,1007.2
2019-02-04T08:58:59.648Z,1007.1
2019-02-04T09:00:00.318Z,1007.1
2019-02-04T09:01:01.295Z,1007.2
2019-02-04T09:02:01.964Z,1007.1
2019-02-04T09:03:02.639Z,1007.1
2019-02-04T09:04:03.308Z,1007.1
2019-02-04T09:05:03.980Z,1007.1
2019-02-04T09:06:04.653Z,1007.1
2019-02-04T09:07:05.324Z,1007.1
2019-02-04T09:08:05.997Z,1007.1
2019-02-04T09:09:06.708Z,1007.1
2019-02-04T09:10:07.377Z,1007.1
2019-02-04T09:11:08.049Z,1007.1
2019-02-04T09:12:08.719Z,1007.0
2019-02-04T09:13:09.455Z,1007.1
2019-02-04T09:14:10.170Z,1007.0
2019-02-04T09:15:10.842Z,1007.1
2019-02-04T09:16:11.514Z,1007.1
2019-02-04T09:17:12.380Z,1007.1
2019-02-04T09:18:13.046Z,1007.1
2019-02-04T09:19:13.716Z,1007.1
2019-02-04T09:20:14.436Z,1007.1
2019-02-04T09:21:15.107Z,1007.1
2019-02-04T09:22:15.780Z,1007.0
2019-02-04T09:23:16.453Z,1007.0
2019-02-04T09:24:17.123Z,1007.0
2019-02-04T09:25:17.799Z,1007.1
2019-02-04T09:26:18.467Z,1007.0
2019-02-04T09:27:19.138Z,1007.0
2019-02-04T09:28:19.810Z,1007.1
2019-02-04T09:29:20.483Z,1007.0
2019-02-04T09:30:21.156Z,1007.0
2019-02-04T09:31:21.876Z,1007.1
2019-02-04T09:32:22.588Z,1007.0
2019-02-04T09:33:23.236Z,1007.0
2019-02-04T09:34:24.143Z,1007.0
2019-02-04T09:35:24.818Z,1007.0
2019-02-04T09:36:25.492Z,1007.1
2019-02-04T09:37:26.161Z,1007.1
2019-02-04T09:38:26.836Z,1007.1
2019-02-04T09:39:27.508Z,1007.1
2019-02-04T09:40:28.180Z,1007.1
2019-02-04T09:41:28.852Z,1007.1
2019-02-04T09:42:29.769Z,1007.1
2019-02-04T09:43:30.448Z,1007.1
2019-02-04T09:44:31.161Z,1007.1
2019-02-04T09:45:31.832Z,1007.0
2019-02-04T09:46:32.509Z,1007.0
2019-02-04T09:47:33.177Z,1007.1
2019-02-04T09:48:33.849Z,1007.1
2019-02-04T09:49:34.522Z,1007.0
2019-02-04T09:50:35.334Z,1007.0
2019-02-04T09:51:36.006Z,1007.1
2019-02-04T09:52:36.679Z,1007.0
2019-02-04T09:53:37.352Z,1007.1
2019-02-04T09:54:38.023Z,1007.1
2019-02-04T09:55:38.695Z,1007.1
2019-02-04T09:56:39.369Z,1007.1
2019-02-04T09:57:40.041Z,1007.1
2019-02-04T09:58:40.714Z,1007.1
2019-02-04T09:59:41.628Z,1007.1
2019-02-04T10:00:42.300Z,1007.1
2019-02-04T10:01:42.972Z,1007.1
2019-02-04T10:02:43.646Z,1007.0
2019-02-04T10:03:44.319Z,1007.0
2019-02-04T10:04:44.993Z,1007.0
2019-02-04T10:05:45.668Z,1007.0
2019-02-04T10:06:46.338Z,1007.0
2019-02-04T10:07:47.008Z,1007.0
2019-02-04T10:08:47.731Z,1007.0
2019-02-04T10:09:48.402Z,1007.0
2019-02-04T10:10:49.078Z,1007.0
2019-02-04T10:11:49.751Z,1007.0
2019-02-04T10:12:52.513Z,1007.0
2019-02-04T10:13:51.139Z,1007.0
2019-02-04T10:14:51.812Z,1006.9
2019-02-04T10:15:52.512Z,1006.9
2019-02-04T10:16:53.495Z,1007.0
2019-02-04T10:17:54.173Z,1007.0
2019-02-04T10:18:54.841Z,1007.0
2019-02-04T10:19:55.510Z,1007.0
2019-02-04T10:20:56.227Z,1007.0
2019-02-04T10:21:56.883Z,1007.0
2019-02-04T10:22:57.555Z,1006.9
2019-02-04T10:23:58.222Z,1006.9
2019-02-04T10:24:58.896Z,1006.9
2019-02-04T10:25:59.951Z,1006.9
2019-02-04T10:27:00.670Z,1007.0
2019-02-04T10:28:01.333Z,1006.9
2019-02-04T10:29:02.034Z,1006.9
2019-02-04T10:30:02.783Z,1006.9
2019-02-04T10:31:03.454Z,1006.9
2019-02-04T10:32:04.098Z,1006.9
2019-02-04T10:33:04.759Z,1006.9
2019-02-04T10:34:05.698Z,1006.8
2019-02-04T10:35:16.537Z,1006.9
2019-02-04T10:36:08.047Z,1006.9
2019-02-04T10:37:08.704Z,1006.9
2019-02-04T10:38:09.381Z,1006.9
2019-02-04T10:39:10.095Z,1006.8
2019-02-04T10:40:10.774Z,1006.8
2019-02-04T10:41:11.440Z,1006.8
2019-02-04T10:42:12.112Z,1006.8
2019-02-04T10:43:13.054Z,1006.8
2019-02-04T10:44:13.740Z,1006.8
2019-02-04T10:45:14.404Z,1006.8
2019-02-04T10:46:15.078Z,1006.8
2019-02-04T10:47:15.776Z,1006.8
2019-02-04T10:48:16.526Z,1006.8
2019-02-04T10:49:17.205Z,1006.8
2019-02-04T10:50:17.885Z,1006.8
2019-02-04T10:51:18.925Z,1006.8
2019-02-04T10:52:19.572Z,1006.8
2019-02-04T10:53:20.349Z,1006.8
2019-02-04T10:54:21.012Z,1006.8
2019-02-04T10:55:21.700Z,1006.7
2019-02-04T10:56:22.343Z,1006.8
2019-02-04T10:57:23.092Z,1006.7
2019-02-04T10:58:23.737Z,1006.7
2019-02-04T10:59:24.429Z,1006.7
2019-02-04T11:00:25.462Z,1006.7
2019-02-04T11:01:26.181Z,1006.6
2019-02-04T11:02:26.819Z,1006.6
2019-02-04T11:03:27.520Z,1006.6
2019-02-04T11:04:28.287Z,1006.6
2019-02-04T11:05:28.955Z,1006.6
2019-02-04T11:06:29.653Z,1006.6
2019-02-04T11:07:30.347Z,1006.6
2019-02-04T11:08:32.826Z,1006.5
2019-02-04T11:09:32.713Z,1006.6
2019-02-04T11:10:33.401Z,1006.5
2019-02-04T11:11:34.078Z,1006.5
2019-02-04T11:12:34.885Z,1006.5
2019-02-04T11:13:35.521Z,1006.5
2019-02-04T11:14:36.202Z,1006.5
2019-02-04T11:15:36.923Z,1006.6
2019-02-04T11:16:37.598Z,1006.6
2019-02-04T11:17:38.553Z,1006.6
2019-02-04T11:18:39.279Z,1006.6
2019-02-04T11:19:39.918Z,1006.6
2019-02-04T11:20:40.610Z,1006.6
2019-02-04T11:21:41.328Z,1006.6
2019-02-04T11:22:41.975Z,1006.6
2019-02-04T11:23:42.652Z,1006.5
2019-02-04T11:24:43.318Z,1006.6
2019-02-04T11:25:44.344Z,1006.5
2019-02-04T11:26:45.086Z,1006.6
2019-02-04T11:27:45.733Z,1006.6
2019-02-04T11:28:46.479Z,1006.5
2019-02-04T11:29:47.179Z,1006.6
2019-02-04T11:30:47.978Z,1006.5
2019-02-04T11:31:48.638Z,1006.5
2019-02-04T11:32:49.370Z,1006.5
2019-02-04T11:33:50.154Z,1006.6
2019-02-04T11:34:51.151Z,1006.5
2019-02-04T11:35:51.833Z,1006.6
2019-02-04T11:36:52.521Z,1006.5
2019-02-04T11:37:53.198Z,1006.5
2019-02-04T11:38:54.064Z,1006.4
2019-02-04T11:39:54.763Z,1006.5
2019-02-04T11:40:55.519Z,1006.5
2019-02-04T11:41:56.191Z,1006.4
2019-02-04T11:42:56.885Z,1006.4
2019-02-04T11:43:57.885Z,1006.4
2019-02-04T11:44:58.597Z,1006.4
2019-02-04T11:45:59.250Z,1006.4
2019-02-04T11:46:59.965Z,1006.4
2019-02-04T11:48:00.606Z,1006.4
2019-02-04T11:49:01.285Z,1006.4
2019-02-04T11:50:01.961Z,1006.4
2019-02-04T11:51:09.916Z,1006.3
2019-02-04T11:52:04.350Z,1006.4
2019-02-04T11:53:05.024Z,1006.3
2019-02-04T11:54:05.700Z,1006.3
2019-02-04T11:55:06.375Z,1006.4
2019-02-04T11:56:07.052Z,1006.4
2019-02-04T11:57:07.728Z,1006.4
2019-02-04T11:58:08.418Z,1006.3
2019-02-04T11:59:09.080Z,1006.4
2019-02-04T12:00:09.757Z,1006.3
2019-02-04T12:01:10.732Z,1006.3
2019-02-04T12:02:11.410Z,1006.2
2019-02-04T12:03:12.085Z,1006.3
2019-02-04T12:04:12.761Z,1006.3
2019-02-04T12:05:13.436Z,1006.2
2019-02-04T12:06:17.298Z,1006.2
2019-02-04T12:07:15.781Z,1006.2
2019-02-04T12:08:16.461Z,1006.2
2019-02-04T12:09:17.323Z,1006.2
2019-02-04T12:10:17.997Z,1006.2
2019-02-04T12:11:18.672Z,1006.2
2019-02-04T12:12:19.351Z,1006.3
2019-02-04T12:13:20.024Z,1006.2
2019-02-04T12:14:20.707Z,1006.2
2019-02-04T12:15:21.424Z,1006.2
2019-02-04T12:16:22.100Z,1006.2
2019-02-04T12:17:22.776Z,1006.2
2019-02-04T12:18:23.726Z,1006.2
2019-02-04T12:19:24.403Z,1006.2
2019-02-04T12:20:25.077Z,1006.2
2019-02-04T12:21:25.754Z,1006.2
2019-02-04T12:22:26.523Z,1006.2
2019-02-04T12:23:27.173Z,1006.2
2019-02-04T12:24:27.851Z,1006.2
2019-02-04T12:25:28.526Z,1006.1
2019-02-04T12:26:29.479Z,1006.1
2019-02-04T12:27:31.965Z,1006.1
2019-02-04T12:28:31.822Z,1006.0
2019-02-04T12:29:32.498Z,1006.1
2019-02-04T12:30:33.175Z,1006.1
2019-02-04T12:31:33.853Z,1006.1
2019-02-04T12:32:34.529Z,1006.1
2019-02-04T12:33:35.203Z,1006.0
2019-02-04T12:34:35.878Z,1006.0
2019-02-04T12:35:36.597Z,1006.1
2019-02-04T12:36:37.280Z,1006.0
2019-02-04T12:37:37.949Z,1005.9